Time;durP1;ratioP1;P1;durP2;ratioP2;P2;SDS_P1;SDS_P2;PMS_P1;PMS_P2;Temp;Humidity;BMP_temperature;BMP_pressure;BME280_temperature;BME280_humidity;BME280_pressure;Samples;Min_cycle;Max_cycle;Signal;HPM_P1;HPM_P2
2023/06/17 00:00:52;;;;;;;6.35;5.10;;;;;;;16.19;90.81;101834.31;5048799;28;20086;-58
2023/06/17 00:03:17;;;;;;;7.75;5.10;;;;;;;16.13;89.86;101838.06;5050451;28;20108;-57
2023/06/17 00:05:42;;;;;;;7.05;5.70;;;;;;;16.11;89.53;101834.63;5048884;28;20649;-55
2023/06/17 00:08:08;;;;;;;8.73;5.50;;;;;;;16.12;89.58;101836.34;5049626;28;20416;-57
2023/06/17 00:10:33;;;;;;;6.60;5.35;;;;;;;16.11;89.47;101832.84;5050055;28;20025;-60
2023/06/17 00:13:00;;;;;;;8.50;5.85;;;;;;;16.07;92.16;101828.56;5049247;28;20031;-59
2023/06/17 00:15:28;;;;;;;10.75;5.88;;;;;;;15.98;92.53;101821.00;5044119;28;20041;-61
2023/06/17 00:17:56;;;;;;;9.25;5.72;;;;;;;15.94;92.67;101829.97;5029548;28;20021;-55
2023/06/17 00:20:23;;;;;;;9.82;6.07;;;;;;;15.91;93.07;101823.84;5029086;28;20051;-58
2023/06/17 00:22:48;;;;;;;7.00;5.50;;;;;;;15.86;93.44;101823.16;5029710;28;20496;-59
2023/06/17 00:25:13;;;;;;;7.00;5.55;;;;;;;15.83;94.49;101817.13;5029144;28;20061;-57
2023/06/17 00:27:40;;;;;;;9.88;5.45;;;;;;;15.82;94.92;101815.38;5011322;28;20025;-56
2023/06/17 00:30:06;;;;;;;9.05;5.90;;;;;;;15.84;94.79;101808.22;5029146;28;20131;-57
2023/06/17 00:32:32;;;;;;;9.93;5.72;;;;;;;15.80;95.06;101807.47;5029603;28;20029;-55
2023/06/17 00:34:57;;;;;;;15.05;6.32;;;;;;;15.75;95.63;101807.66;5029457;28;20032;-55
2023/06/17 00:37:22;;;;;;;10.90;6.10;;;;;;;15.73;95.47;101808.66;5049126;28;20029;-55
2023/06/17 00:39:48;;;;;;;9.18;5.50;;;;;;;15.69;96.26;101807.94;5049277;28;20031;-56
2023/06/17 00:42:13;;;;;;;6.93;5.93;;;;;;;15.67;96.58;101809.75;5047179;28;20036;-53
2023/06/17 00:44:39;;;;;;;5.80;5.05;;;;;;;15.66;96.83;101808.88;5048322;28;20055;-54
2023/06/17 00:47:05;;;;;;;8.00;6.03;;;;;;;15.64;98.35;101808.09;5049027;28;20020;-57
2023/06/17 00:49:35;;;;;;;9.85;6.07;;;;;;;15.65;98.23;101806.28;5047641;28;20493;-56
2023/06/17 00:52:04;;;;;;;10.90;5.95;;;;;;;15.64;99.00;101799.25;5048165;28;20032;-58
2023/06/17 00:54:30;;;;;;;;;;;;;;;15.63;100.00;101806.34;5049288;28;20112;-57
2023/06/17 00:56:57;;;;;;;8.90;5.90;;;;;;;15.63;99.88;101798.38;5029395;28;19913;-58
2023/06/17 00:59:22;;;;;;;13.95;6.40;;;;;;;15.61;99.99;101805.56;5048695;28;20039;-58
2023/06/17 01:01:48;;;;;;;8.48;5.60;;;;;;;15.59;99.72;101802.09;5015397;28;20386;-58
2023/06/17 01:04:15;;;;;;;7.47;5.40;;;;;;;15.61;99.13;101802.91;5028660;28;20026;-58
2023/06/17 01:06:46;;;;;;;10.43;6.18;;;;;;;15.60;99.53;101808.28;5028606;28;20025;-58
2023/06/17 01:09:20;;;;;;;9.13;6.00;;;;;;;15.57;99.71;101803.97;5010948;28;20084;-56
2023/06/17 01:11:46;;;;;;;8.20;5.35;;;;;;;15.58;99.47;101805.69;5019018;28;20751;-55
2023/06/17 01:14:13;;;;;;;6.63;5.78;;;;;;;15.58;99.51;101804.81;5048171;28;20036;-59
2023/06/17 01:16:42;;;;;;;10.50;5.65;;;;;;;15.54;100.00;101804.09;5030086;28;20033;-58
2023/06/17 01:19:25;;;;;;;11.30;6.45;;;;;;;15.55;99.95;101803.16;5031005;28;20021;-57
2023/06/17 01:21:54;;;;;;;9.10;6.43;;;;;;;15.49;99.95;101803.38;5047373;28;20369;-59
2023/06/17 01:24:29;;;;;;;11.05;6.05;;;;;;;15.43;100.00;101807.16;5048495;28;20108;-59
2023/06/17 01:26:59;;;;;;;7.25;5.70;;;;;;;15.41;100.00;101804.56;5047181;28;20116;-57
2023/06/17 01:29:26;;;;;;;8.63;6.57;;;;;;;15.38;100.00;101799.38;5047723;28;20108;-57
2023/06/17 01:31:56;;;;;;;7.95;6.38;;;;;;;15.34;100.00;101803.06;5045414;28;20037;-59
2023/06/17 01:34:30;;;;;;;11.27;6.13;;;;;;;15.32;100.00;101799.59;5092690;23;20129;-55
2023/06/17 01:36:57;;;;;;;9.63;6.65;;;;;;;15.29;100.00;101802.38;5023190;28;20132;-55
2023/06/17 01:39:23;;;;;;;9.95;6.45;;;;;;;15.30;100.00;101806.78;5020547;28;20124;-57
2023/06/17 01:41:53;;;;;;;11.02;6.88;;;;;;;15.28;100.00;101803.31;5024447;28;20119;-57
2023/06/17 01:44:20;;;;;;;15.93;7.40;;;;;;;15.28;100.00;101800.66;5024724;28;20556;-58
2023/06/17 01:46:45;;;;;;;10.23;6.95;;;;;;;15.25;100.00;101808.72;5023850;28;20469;-57
2023/06/17 01:49:11;;;;;;;13.30;7.40;;;;;;;15.25;100.00;101808.72;5025750;28;20037;-58
2023/06/17 01:51:36;;;;;;;11.20;6.60;;;;;;;15.20;100.00;101805.41;5025240;28;20197;-58
2023/06/17 01:54:02;;;;;;;10.30;6.90;;;;;;;15.20;100.00;101806.25;5020750;28;20091;-55
2023/06/17 01:56:27;;;;;;;7.10;6.32;;;;;;;15.19;100.00;101803.66;5014757;28;20037;-57
2023/06/17 01:58:53;;;;;;;8.73;6.13;;;;;;;15.15;100.00;101809.06;5025357;28;20017;-58
2023/06/17 02:01:18;;;;;;;11.88;7.50;;;;;;;15.07;100.00;101800.53;5024823;28;20025;-54
2023/06/17 02:03:44;;;;;;;12.18;7.63;;;;;;;15.03;100.00;101799.78;5025208;28;20032;-57
2023/06/17 02:06:10;;;;;;;12.18;7.57;;;;;;;14.94;100.00;101791.31;5023643;28;20031;-55
2023/06/17 02:08:36;;;;;;;10.80;7.78;;;;;;;14.89;100.00;101796.78;5024699;28;20029;-59
2023/06/17 02:11:02;;;;;;;12.90;7.93;;;;;;;14.84;100.00;101799.59;5024701;28;20067;-53
2023/06/17 02:13:27;;;;;;;10.05;7.85;;;;;;;14.84;100.00;101790.78;5024932;28;20087;-61
2023/06/17 02:15:52;;;;;;;13.10;8.60;;;;;;;14.74;100.00;101787.56;5025668;28;20455;-57
2023/06/17 02:18:18;;;;;;;10.85;8.70;;;;;;;14.68;100.00;101782.47;5025306;28;20061;-57
2023/06/17 02:20:45;;;;;;;12.90;8.80;;;;;;;14.64;100.00;101776.44;5029488;28;20112;-55
2023/06/17 02:23:10;;;;;;;13.63;8.60;;;;;;;14.57;100.00;101778.41;5029752;28;20108;-57
2023/06/17 02:25:39;;;;;;;16.65;9.98;;;;;;;14.49;100.00;101777.84;5025926;28;20121;-61
2023/06/17 02:28:04;;;;;;;13.07;9.75;;;;;;;14.43;100.00;101772.75;5026862;28;20034;-55
2023/06/17 02:30:30;;;;;;;18.98;12.23;;;;;;;14.37;100.00;101781.78;5027422;28;20033;-59
2023/06/17 02:32:55;;;;;;;17.63;11.90;;;;;;;14.32;100.00;101770.47;5027746;28;20032;-57
2023/06/17 02:35:20;;;;;;;13.10;11.32;;;;;;;14.28;100.00;101770.59;5039718;28;20149;-59
2023/06/17 02:37:46;;;;;;;13.88;10.57;;;;;;;14.28;100.00;101767.06;5048288;28;20056;-55
2023/06/17 02:40:11;;;;;;;14.90;10.85;;;;;;;14.25;100.00;101768.06;5046178;28;20032;-59
2023/06/17 02:42:37;;;;;;;18.65;11.18;;;;;;;14.21;100.00;101766.41;5047072;28;20018;-58
2023/06/17 02:45:03;;;;;;;19.83;11.40;;;;;;;14.19;100.00;101762.09;5046250;28;20452;-56
2023/06/17 02:47:28;;;;;;;22.13;11.27;;;;;;;14.18;100.00;101760.38;5047545;28;20035;-55
2023/06/17 02:49:54;;;;;;;17.90;11.30;;;;;;;14.17;100.00;101763.94;5047529;28;20116;-57
2023/06/17 02:52:21;;;;;;;16.95;10.95;;;;;;;14.12;100.00;101761.44;5009137;28;20034;-56
2023/06/17 02:54:46;;;;;;;15.82;11.40;;;;;;;14.09;100.00;101762.41;5027667;28;20531;-59
2023/06/17 02:57:11;;;;;;;13.95;11.40;;;;;;;14.09;100.00;101762.41;5025688;28;20025;-60
2023/06/17 02:59:37;;;;;;;13.68;10.63;;;;;;;14.09;100.00;101764.19;5027515;28;20517;-58
2023/06/17 03:02:03;;;;;;;14.27;10.60;;;;;;;14.07;100.00;101761.59;5041417;28;20029;-53
2023/06/17 03:04:34;;;;;;;15.38;12.18;;;;;;;14.05;100.00;101760.78;5047408;28;20028;-59
2023/06/17 03:07:03;;;;;;;13.48;11.98;;;;;;;14.03;100.00;101762.63;5046619;28;20041;-56
2023/06/17 03:09:29;;;;;;;;;;;;;;;14.08;100.00;101762.44;5047719;28;20025;-52
2023/06/17 03:11:54;;;;;;;15.57;10.95;;;;;;;14.10;100.00;101766.78;5044653;28;19959;-57
2023/06/17 03:14:20;;;;;;;13.95;10.68;;;;;;;14.06;100.00;101762.50;5031291;28;20385;-56
2023/06/17 03:16:46;;;;;;;15.88;12.30;;;;;;;14.01;100.00;101762.69;5030786;28;20030;-57
2023/06/17 03:19:11;;;;;;;16.52;12.50;;;;;;;14.05;100.00;101762.56;5013067;28;20251;-55
2023/06/17 03:21:40;;;;;;;18.42;12.77;;;;;;;14.06;100.00;101767.78;5030941;28;20025;-56
2023/06/17 03:24:06;;;;;;;;;;;;;;;14.13;100.00;101768.47;5030606;28;20017;-57
2023/06/17 03:26:31;;;;;;;16.85;13.25;;;;;;;14.11;100.00;101763.22;5030236;28;20426;-59
2023/06/17 03:28:57;;;;;;;16.95;13.32;;;;;;;14.11;100.00;101763.22;5030037;28;20469;-55
2023/06/17 03:31:23;;;;;;;16.02;12.73;;;;;;;14.06;100.00;101762.50;5030658;28;20736;-61
2023/06/17 03:33:52;;;;;;;18.00;13.63;;;;;;;14.05;100.00;101765.22;5042344;28;20120;-59
2023/06/17 03:36:24;;;;;;;14.88;13.02;;;;;;;14.04;100.00;101761.69;5050877;28;20053;-58
2023/06/17 03:38:50;;;;;;;16.02;13.00;;;;;;;14.01;100.00;101765.31;5050584;28;20384;-56
2023/06/17 03:41:15;;;;;;;20.38;13.35;;;;;;;14.03;100.00;101754.69;5046248;28;20075;-57
2023/06/17 03:43:41;;;;;;;18.00;13.32;;;;;;;14.08;100.00;101757.16;5050509;28;20488;-55
2023/06/17 03:46:06;;;;;;;15.73;12.65;;;;;;;14.10;100.00;101760.63;5049795;28;20025;-60
2023/06/17 03:48:31;;;;;;;17.75;12.82;;;;;;;14.12;100.00;101759.63;5050684;28;20071;-59
2023/06/17 03:50:56;;;;;;;17.40;12.50;;;;;;;14.17;100.00;101761.28;5049931;28;20158;-59
2023/06/17 03:53:22;;;;;;;17.75;13.57;;;;;;;14.25;100.00;101756.56;5041707;28;20114;-60
2023/06/17 03:55:47;;;;;;;14.70;12.82;;;;;;;14.30;100.00;101757.25;5029728;28;20064;-57
2023/06/17 03:58:14;;;;;;;15.85;13.43;;;;;;;14.37;100.00;101748.19;5035110;28;20040;-59
2023/06/17 04:00:41;;;;;;;18.85;13.85;;;;;;;14.47;100.00;101748.72;5041766;28;20025;-58
2023/06/17 04:03:06;;;;;;;17.05;13.45;;;;;;;14.56;100.00;101747.53;5049307;28;20032;-58
2023/06/17 04:05:33;;;;;;;17.17;13.73;;;;;;;14.63;100.00;101754.34;5049416;28;20036;-59
2023/06/17 04:07:59;;;;;;;20.92;13.82;;;;;;;14.74;100.00;101747.78;5050174;28;20025;-59
2023/06/17 04:10:25;;;;;;;19.48;13.98;;;;;;;14.80;100.00;101757.31;5049379;28;20036;-60
2023/06/17 04:12:51;;;;;;;17.33;13.55;;;;;;;14.89;100.00;101756.97;5049424;28;20051;-60
2023/06/17 04:15:16;;;;;;;17.33;13.90;;;;;;;14.99;100.00;101766.31;5046399;28;20021;-60
2023/06/17 04:17:42;;;;;;;18.60;14.20;;;;;;;15.03;100.00;101759.97;5050014;28;20044;-59
2023/06/17 04:20:10;;;;;;;17.17;14.15;;;;;;;15.10;100.00;101755.31;5057153;28;20028;-60
2023/06/17 04:22:39;;;;;;;17.50;14.00;;;;;;;15.19;100.00;101764.69;5051903;28;20036;-60
2023/06/17 04:25:05;;;;;;;18.45;14.60;;;;;;;15.28;100.00;101758.16;5037810;28;20480;-61
2023/06/17 04:27:31;;;;;;;18.17;14.25;;;;;;;15.41;100.00;101766.50;5031280;28;20023;-59
2023/06/17 04:29:56;;;;;;;21.73;15.20;;;;;;;15.52;100.00;101763.44;5049378;28;20477;-61
2023/06/17 04:32:24;;;;;;;23.75;16.83;;;;;;;15.59;100.00;101766.72;5049726;28;20021;-60
2023/06/17 04:34:50;;;;;;;17.88;15.98;;;;;;;15.68;100.00;101768.13;5049324;28;20056;-59
2023/06/17 04:37:16;;;;;;;24.08;17.35;;;;;;;15.74;100.00;101767.88;5058518;28;20464;-60
2023/06/17 04:39:42;;;;;;;21.08;16.00;;;;;;;15.83;100.00;101766.63;5053910;28;20060;-60
2023/06/17 04:42:09;;;;;;;20.63;16.10;;;;;;;15.90;100.00;101770.78;5048748;28;20025;-60
2023/06/17 04:44:35;;;;;;;19.90;15.95;;;;;;;15.99;100.00;101757.13;5049392;28;20120;-59
2023/06/17 04:47:00;;;;;;;24.35;18.60;;;;;;;16.06;100.00;101757.72;5049221;28;20100;-60
2023/06/17 04:49:27;;;;;;;22.90;18.52;;;;;;;16.11;100.00;101755.75;5062634;28;20017;-59
2023/06/17 04:51:52;;;;;;;24.80;18.80;;;;;;;16.27;100.00;101760.38;5048664;28;20075;-60
2023/06/17 04:54:18;;;;;;;23.67;18.60;;;;;;;16.27;100.00;101755.06;5031673;28;20052;-60
2023/06/17 04:56:43;;;;;;;22.08;19.00;;;;;;;16.34;100.00;101758.34;5048441;28;20029;-59
2023/06/17 04:59:09;;;;;;;23.38;18.80;;;;;;;16.39;100.00;101749.22;5043971;28;20103;-59
2023/06/17 05:01:34;;;;;;;23.50;19.45;;;;;;;16.42;100.00;101756.19;5049382;28;20025;-58
2023/06/17 05:04:00;;;;;;;27.75;20.15;;;;;;;16.47;100.00;101758.66;5048975;28;20396;-59
2023/06/17 05:06:25;;;;;;;19.90;17.25;;;;;;;16.54;100.00;101754.78;5042853;28;20026;-61
2023/06/17 05:08:50;;;;;;;24.60;17.88;;;;;;;16.55;100.00;101759.16;5046078;28;20068;-60
2023/06/17 05:11:16;;;;;;;23.40;18.42;;;;;;;16.60;100.00;101754.50;5048206;28;20479;-59
2023/06/17 05:13:41;;;;;;;24.63;18.58;;;;;;;16.61;100.00;101756.22;5048638;28;20021;-60
2023/06/17 05:16:06;;;;;;;23.60;19.10;;;;;;;16.70;100.00;101751.44;5047039;28;20025;-59
2023/06/17 05:18:32;;;;;;;22.90;19.27;;;;;;;16.74;100.00;101764.50;5036612;28;20430;-58
2023/06/17 05:20:57;;;;;;;25.23;19.88;;;;;;;16.86;100.00;101764.91;5036394;28;20370;-59
2023/06/17 05:23:22;;;;;;;23.20;18.58;;;;;;;16.98;100.00;101760.81;5038474;28;20039;-59
2023/06/17 05:25:48;;;;;;;22.33;19.02;;;;;;;16.99;100.00;101759.88;5039837;28;20109;-60
2023/06/17 05:28:13;;;;;;;22.92;19.42;;;;;;;17.06;100.00;101761.31;5047877;28;20040;-60
2023/06/17 05:30:42;;;;;;;23.85;18.73;;;;;;;17.14;100.00;101763.66;5048156;28;20031;-63
2023/06/17 05:33:08;;;;;;;26.42;19.92;;;;;;;17.23;100.00;101765.88;5048449;28;20086;-64
2023/06/17 05:35:33;;;;;;;24.25;18.20;;;;;;;17.26;100.00;101755.09;5047659;28;20045;-62
2023/06/17 05:37:58;;;;;;;22.00;19.63;;;;;;;17.16;100.00;101759.97;5048084;28;20016;-62
2023/06/17 05:40:24;;;;;;;20.05;17.92;;;;;;;17.39;100.00;101747.38;5047225;28;20112;-59
2023/06/17 05:42:49;;;;;;;20.98;18.77;;;;;;;17.34;100.00;101748.53;5048026;28;20060;-63
2023/06/17 05:45:15;;;;;;;21.88;17.90;;;;;;;17.58;100.00;101751.78;5029670;28;20025;-62
2023/06/17 05:47:40;;;;;;;22.52;19.50;;;;;;;17.57;100.00;101751.88;5047507;28;20043;-60
2023/06/17 05:50:06;;;;;;;22.13;17.10;;;;;;;17.77;100.00;101753.53;5047490;28;20103;-62
2023/06/17 05:52:31;;;;;;;19.50;16.20;;;;;;;17.93;100.00;101750.97;5047498;28;20107;-61
2023/06/17 05:54:56;;;;;;;17.42;14.82;;;;;;;18.03;100.00;101749.56;5047075;28;20021;-62
2023/06/17 05:57:22;;;;;;;20.52;15.85;;;;;;;18.23;100.00;101754.81;5048193;28;20021;-63
2023/06/17 05:59:47;;;;;;;16.17;12.25;;;;;;;18.48;100.00;101757.06;5030470;28;20059;-62
2023/06/17 06:02:12;;;;;;;15.38;13.45;;;;;;;18.52;100.00;101755.13;5047710;28;20083;-63
2023/06/17 06:04:38;;;;;;;14.77;12.73;;;;;;;18.59;100.00;101752.97;5047693;28;20029;-61
2023/06/17 06:07:03;;;;;;;18.67;11.75;;;;;;;18.66;100.00;101749.88;5047458;28;20030;-62
2023/06/17 06:09:28;;;;;;;21.55;11.55;;;;;;;18.86;100.00;101757.75;5047771;28;20033;-62
2023/06/17 06:11:54;;;;;;;12.57;9.18;;;;;;;18.92;100.00;101758.31;5046694;28;20032;-62
2023/06/17 06:14:20;;;;;;;9.50;7.53;;;;;;;19.06;100.00;101757.53;5043191;28;20033;-61
2023/06/17 06:16:45;;;;;;;10.85;6.82;;;;;;;19.26;100.00;101762.75;5038413;28;20429;-64
2023/06/17 06:19:10;;;;;;;13.13;8.00;;;;;;;19.38;100.00;101755.84;5015972;28;20028;-62
2023/06/17 06:21:36;;;;;;;9.80;7.72;;;;;;;19.54;100.00;101754.00;5031486;28;20022;-61
2023/06/17 06:24:01;;;;;;;8.10;7.25;;;;;;;19.55;100.00;101747.72;5046409;28;20032;-61
2023/06/17 06:26:26;;;;;;;11.20;7.50;;;;;;;19.63;100.00;101746.41;5034434;28;20033;-61
2023/06/17 06:28:52;;;;;;;11.30;8.02;;;;;;;19.72;98.76;101758.38;5043713;28;20021;-62
2023/06/17 06:31:17;;;;;;;11.13;7.07;;;;;;;19.86;98.18;101753.06;5047351;28;20104;-62
2023/06/17 06:33:42;;;;;;;5.78;5.28;;;;;;;19.94;94.09;101745.47;5038510;28;20469;-62
2023/06/17 06:36:09;;;;;;;7.60;5.50;;;;;;;19.88;86.14;101748.50;5026598;28;20045;-63
2023/06/17 06:38:34;;;;;;;6.85;6.10;;;;;;;19.94;88.90;101750.81;5039194;28;20446;-61
2023/06/17 06:41:00;;;;;;;9.13;5.80;;;;;;;20.06;87.23;101746.59;5053441;28;20108;-61
2023/06/17 06:43:25;;;;;;;8.73;6.38;;;;;;;20.13;87.96;101751.53;5047505;28;20497;-61
2023/06/17 06:45:51;;;;;;;13.32;6.05;;;;;;;20.20;88.38;101743.06;5029836;28;20025;-64
2023/06/17 06:48:16;;;;;;;8.63;5.47;;;;;;;20.24;87.79;101748.22;5035387;28;20079;-62
2023/06/17 06:50:41;;;;;;;11.45;6.32;;;;;;;20.27;87.94;101742.69;5031474;28;20444;-61
2023/06/17 06:53:07;;;;;;;9.80;6.47;;;;;;;20.30;87.29;101745.19;5043518;28;20025;-62
2023/06/17 06:55:32;;;;;;;7.43;5.45;;;;;;;20.56;87.08;101742.72;5044664;28;20481;-60
2023/06/17 06:57:57;;;;;;;7.47;4.88;;;;;;;20.60;82.69;101736.22;5044210;28;20505;-62
2023/06/17 07:00:23;;;;;;;6.35;4.35;;;;;;;20.85;80.74;101740.00;5030614;28;20025;-63
2023/06/17 07:02:48;;;;;;;6.03;4.18;;;;;;;21.00;77.91;101740.88;5050731;28;20087;-59
2023/06/17 07:05:13;;;;;;;5.00;4.47;;;;;;;21.03;78.65;101734.47;5050373;28;20057;-59
2023/06/17 07:07:39;;;;;;;9.18;4.63;;;;;;;21.08;79.00;101735.03;5050797;28;20500;-59
2023/06/17 07:10:05;;;;;;;5.63;4.47;;;;;;;21.16;78.33;101738.06;5046333;28;20033;-59
2023/06/17 07:12:30;;;;;;;9.23;4.70;;;;;;;21.18;76.62;101741.53;5047970;28;20416;-59
2023/06/17 07:14:55;;;;;;;6.03;4.65;;;;;;;21.32;75.90;101734.41;5046887;28;20107;-61
2023/06/17 07:17:21;;;;;;;5.97;4.30;;;;;;;21.34;70.89;101737.81;5029820;28;20061;-62
2023/06/17 07:19:46;;;;;;;6.63;4.13;;;;;;;21.43;69.20;101737.22;5048055;28;20028;-60
2023/06/17 07:22:12;;;;;;;8.13;3.55;;;;;;;21.45;68.71;101735.31;5047247;28;20032;-59
2023/06/17 07:24:37;;;;;;;8.43;4.30;;;;;;;21.37;68.99;101737.63;5047877;28;20029;-57
2023/06/17 07:27:03;;;;;;;7.00;4.03;;;;;;;21.49;68.57;101746.66;5049904;28;20112;-59
2023/06/17 07:29:28;;;;;;;7.05;4.20;;;;;;;21.52;68.20;101749.16;5049063;28;20040;-59
2023/06/17 07:31:54;;;;;;;10.95;3.80;;;;;;;21.34;65.71;101756.56;5049936;28;20437;-57
2023/06/17 07:34:19;;;;;;;4.43;3.70;;;;;;;21.64;63.31;101747.47;5014886;28;20044;-60
2023/06/17 07:36:45;;;;;;;4.20;3.65;;;;;;;21.69;62.54;101741.81;5029591;28;20513;-59
2023/06/17 07:39:10;;;;;;;7.38;4.03;;;;;;;21.88;61.44;101745.97;5029306;28;20025;-57
2023/06/17 07:41:36;;;;;;;10.13;4.28;;;;;;;21.99;61.72;101734.50;5029237;28;20029;-62
2023/06/17 07:44:01;;;;;;;4.25;3.83;;;;;;;22.13;61.38;101736.22;5028808;28;20041;-59
2023/06/17 07:46:26;;;;;;;5.07;3.92;;;;;;;22.21;60.37;101741.91;5029924;28;20059;-59
2023/06/17 07:48:52;;;;;;;4.85;4.25;;;;;;;22.05;59.23;101736.75;5028566;28;20030;-59
2023/06/17 07:51:17;;;;;;;9.57;3.95;;;;;;;22.13;58.59;101739.78;5028910;28;20120;-59
2023/06/17 07:53:42;;;;;;;8.05;4.10;;;;;;;22.28;57.78;101734.31;5040124;28;20025;-60
2023/06/17 07:56:08;;;;;;;7.32;3.97;;;;;;;22.30;56.72;101737.72;5048330;28;20116;-59
2023/06/17 07:58:33;;;;;;;4.32;3.63;;;;;;;22.41;56.76;101743.22;5046824;28;20100;-60
2023/06/17 08:00:58;;;;;;;8.45;3.88;;;;;;;22.51;55.96;101740.72;5049783;28;20116;-61
2023/06/17 08:03:24;;;;;;;9.23;3.75;;;;;;;22.69;55.83;101738.59;5032408;28;20052;-60
2023/06/17 08:05:49;;;;;;;6.35;3.70;;;;;;;22.72;56.68;101737.50;5032005;28;20026;-60
2023/06/17 08:08:15;;;;;;;5.53;3.95;;;;;;;22.82;56.22;101737.72;5029126;28;20061;-59
2023/06/17 08:10:40;;;;;;;5.32;3.78;;;;;;;22.78;56.35;101741.59;5027928;28;20033;-60
2023/06/17 08:13:06;;;;;;;10.55;4.03;;;;;;;22.92;54.71;101738.78;5033879;28;20033;-59
2023/06/17 08:15:31;;;;;;;4.55;3.83;;;;;;;23.21;53.46;101742.97;5048995;28;20033;-58
2023/06/17 08:17:57;;;;;;;6.07;3.60;;;;;;;23.34;53.53;101734.84;5047395;28;20033;-60
2023/06/17 08:20:22;;;;;;;6.53;3.67;;;;;;;23.39;53.25;101742.63;5047603;28;20032;-60
2023/06/17 08:22:47;;;;;;;5.40;3.85;;;;;;;23.40;52.96;101737.13;5034587;28;20033;-56
2023/06/17 08:25:13;;;;;;;4.82;3.38;;;;;;;23.44;52.77;101738.59;5027672;28;20524;-60
2023/06/17 08:27:38;;;;;;;5.85;3.60;;;;;;;23.50;52.45;101739.13;5027909;28;20381;-59
2023/06/17 08:30:05;;;;;;;5.22;3.83;;;;;;;23.42;52.98;101745.06;5028275;28;20108;-61
2023/06/17 08:32:31;;;;;;;8.88;3.60;;;;;;;23.38;52.67;101738.22;5028484;28;20033;-59
2023/06/17 08:34:57;;;;;;;5.65;3.35;;;;;;;23.28;52.22;101744.25;5028035;28;20045;-60
2023/06/17 08:37:22;;;;;;;6.68;3.72;;;;;;;23.42;52.38;101743.22;5028196;28;20032;-59
2023/06/17 08:39:47;;;;;;;5.13;3.38;;;;;;;23.62;50.87;101746.25;5028353;28;20025;-60
2023/06/17 08:42:13;;;;;;;4.28;3.10;;;;;;;23.71;50.78;101737.50;5028101;28;20040;-61
2023/06/17 08:44:42;;;;;;;4.80;3.05;;;;;;;23.85;49.43;101740.97;5028253;28;20061;-61
2023/06/17 08:47:10;;;;;;;5.57;3.20;;;;;;;23.95;49.09;101741.97;5028060;28;20112;-60
2023/06/17 08:49:36;;;;;;;4.72;3.25;;;;;;;24.07;47.84;101733.91;5010437;28;20036;-59
2023/06/17 08:52:02;;;;;;;4.65;2.58;;;;;;;24.02;44.72;101731.56;5010259;28;20026;-61
2023/06/17 08:54:28;;;;;;;5.05;2.90;;;;;;;23.93;45.53;101730.44;5009665;28;20040;-61
2023/06/17 08:56:53;;;;;;;6.90;3.15;;;;;;;24.16;45.73;101732.38;5027769;28;20397;-59
2023/06/17 08:59:19;;;;;;;6.30;3.10;;;;;;;24.22;45.40;101727.38;5028151;28;20500;-61
2023/06/17 09:01:45;;;;;;;5.30;2.55;;;;;;;24.32;43.58;101729.34;5027935;28;20104;-61
2023/06/17 09:04:11;;;;;;;5.32;2.90;;;;;;;24.41;44.47;101725.06;5009964;28;20061;-60
2023/06/17 09:06:36;;;;;;;6.75;2.92;;;;;;;24.39;46.58;101733.25;5027763;28;20021;-60
2023/06/17 09:09:02;;;;;;;8.18;3.50;;;;;;;24.01;46.42;101732.56;5027353;28;20082;-61
2023/06/17 09:11:31;;;;;;;3.47;3.08;;;;;;;24.22;46.96;101732.75;5027251;28;20096;-59
2023/06/17 09:13:58;;;;;;;2.97;2.70;;;;;;;24.37;44.16;101724.44;5027404;28;20500;-61
2023/06/17 09:16:31;;;;;;;2.97;2.65;;;;;;;24.41;44.85;101720.50;5027330;28;20466;-60
2023/06/17 09:19:13;;;;;;;10.00;3.20;;;;;;;24.30;47.56;101726.78;5027372;28;20358;-59
2023/06/17 09:21:39;;;;;;;3.80;3.20;;;;;;;24.35;46.98;101721.88;5027730;28;20022;-60
2023/06/17 09:24:05;;;;;;;3.05;2.85;;;;;;;24.55;47.66;101726.63;5027368;28;20374;-61
2023/06/17 09:26:33;;;;;;;6.28;3.60;;;;;;;24.49;47.46;101722.59;5027098;28;20104;-60
2023/06/17 09:29:03;;;;;;;6.35;3.10;;;;;;;24.79;45.97;101722.94;5027154;28;20385;-62
2023/06/17 09:31:29;;;;;;;3.67;2.90;;;;;;;24.65;47.29;101722.22;5009860;28;20036;-62
2023/06/17 09:33:56;;;;;;;7.70;3.30;;;;;;;24.64;46.95;101715.13;5009546;28;20029;-61
2023/06/17 09:36:22;;;;;;;5.38;3.40;;;;;;;24.84;47.01;101721.59;5027265;28;20030;-60
2023/06/17 09:38:50;;;;;;;4.72;3.28;;;;;;;24.97;48.27;101718.78;5010366;28;20110;-62
2023/06/17 09:41:16;;;;;;;4.05;3.03;;;;;;;24.76;47.81;101720.50;5027141;28;20094;-60
2023/06/17 09:43:41;;;;;;;3.45;3.10;;;;;;;25.08;46.83;101717.06;5027139;28;20045;-60
2023/06/17 09:46:08;;;;;;;4.38;2.95;;;;;;;25.28;45.82;101719.94;5027019;28;20021;-61
2023/06/17 09:48:35;;;;;;;3.60;3.30;;;;;;;25.48;45.52;101708.34;5009671;28;20451;-61
2023/06/17 09:51:05;;;;;;;3.35;3.05;;;;;;;25.58;44.28;101704.84;5027012;28;20069;-62
2023/06/17 09:53:30;;;;;;;5.38;3.10;;;;;;;25.63;44.58;101709.88;5010172;28;20021;-60
2023/06/17 09:55:57;;;;;;;7.55;3.33;;;;;;;25.73;44.08;101706.25;5026199;28;20366;-61
2023/06/17 09:58:31;;;;;;;4.50;2.88;;;;;;;25.89;43.36;101702.25;5027036;28;20059;-62
2023/06/17 10:01:05;;;;;;;4.15;3.58;;;;;;;25.76;44.13;101705.13;5026992;28;20025;-61
2023/06/17 10:03:33;;;;;;;7.35;3.05;;;;;;;25.93;43.97;101694.72;5009934;28;20084;-62
2023/06/17 10:06:03;;;;;;;5.40;3.10;;;;;;;26.03;44.02;101702.91;5027072;28;20033;-61
2023/06/17 10:08:35;;;;;;;3.70;3.05;;;;;;;26.28;43.87;101704.31;5009354;28;20390;-62
2023/06/17 10:11:01;;;;;;;3.95;3.20;;;;;;;26.52;42.44;101710.41;5026372;28;20462;-61
2023/06/17 10:13:28;;;;;;;4.93;3.45;;;;;;;26.49;42.44;101704.28;5009323;28;20021;-60
2023/06/17 10:15:54;;;;;;;8.50;3.60;;;;;;;26.56;42.52;101701.91;5026829;28;20389;-62
2023/06/17 10:18:21;;;;;;;7.25;3.15;;;;;;;26.66;42.77;101707.31;5009710;28;20024;-61
2023/06/17 10:20:47;;;;;;;5.25;3.08;;;;;;;26.54;44.01;101708.41;5009649;28;20017;-61
2023/06/17 10:23:13;;;;;;;7.80;3.42;;;;;;;26.79;43.31;101706.22;5030723;28;20029;-61
2023/06/17 10:25:38;;;;;;;5.78;3.42;;;;;;;26.85;42.34;101711.09;5030558;28;20111;-61
2023/06/17 10:28:05;;;;;;;4.50;3.10;;;;;;;26.97;41.47;101703.72;5030568;28;20462;-61
2023/06/17 10:30:30;;;;;;;6.00;3.65;;;;;;;26.94;42.17;101703.97;5013567;28;20113;-59
2023/06/17 10:33:01;;;;;;;5.15;3.30;;;;;;;27.16;40.82;101708.31;5030440;28;20499;-60
2023/06/17 10:35:44;;;;;;;5.15;2.90;;;;;;;27.14;41.70;101704.03;5030574;28;20041;-60
2023/06/17 10:38:10;;;;;;;6.63;3.15;;;;;;;27.22;42.16;101705.03;5030688;28;20350;-59
2023/06/17 10:40:40;;;;;;;4.93;3.28;;;;;;;27.56;41.17;101700.19;5030193;28;20025;-60
2023/06/17 10:43:05;;;;;;;8.18;3.65;;;;;;;27.68;40.44;101695.50;5030372;28;20037;-60
2023/06/17 10:45:32;;;;;;;5.70;3.30;;;;;;;27.54;40.70;101688.66;5030564;28;20456;-62
2023/06/17 10:48:20;;;;;;;4.93;3.20;;;;;;;27.59;39.40;101683.66;5030378;28;20022;-60
2023/06/17 10:50:47;;;;;;;;;;;;;;;27.49;41.64;101687.25;5031279;28;20497;-60
2023/06/17 10:53:16;;;;;;;5.25;3.28;;;;;;;27.94;40.34;101682.19;5012613;28;19915;-64
2023/06/17 10:55:42;;;;;;;7.55;3.28;;;;;;;28.28;39.74;101688.06;5029721;28;20117;-60
2023/06/17 10:58:07;;;;;;;5.80;3.25;;;;;;;28.29;38.93;101676.22;5030070;28;20112;-60
2023/06/17 11:00:32;;;;;;;4.22;3.08;;;;;;;27.88;40.45;101670.06;5030443;28;20403;-63
2023/06/17 11:02:58;;;;;;;4.90;3.10;;;;;;;28.15;39.14;101662.16;5012648;28;20125;-61
2023/06/17 11:05:24;;;;;;;3.50;3.20;;;;;;;28.19;41.03;101660.00;5030305;28;20037;-59
2023/06/17 11:07:49;;;;;;;3.72;2.83;;;;;;;28.46;38.09;101664.63;5031063;28;20095;-61
2023/06/17 11:10:16;;;;;;;7.07;2.90;;;;;;;28.30;37.13;101667.13;5029348;28;20633;-60
2023/06/17 11:12:44;;;;;;;4.45;3.00;;;;;;;28.71;38.26;101653.22;5030322;28;20045;-61